Time;durP1;ratioP1;P1;durP2;ratioP2;P2;SDS_P1;SDS_P2;PMS_P1;PMS_P2;Temp;Humidity;BMP_temperature;BMP_pressure;BME280_temperature;BME280_humidity;BME280_pressure;Samples;Min_cycle;Max_cycle;Signal;HPM_P1;HPM_P2
2023/04/11 00:01:33;;;;;;;16.20;8.60;;;;;;;7.36;72.37;100004.36;108833;1259;72215;-67
2023/04/11 00:04:21;;;;;;;15.30;8.00;;;;;;;7.38;72.27;100003.52;108780;1259;67705;-66
2023/04/11 00:07:09;;;;;;;17.00;8.90;;;;;;;7.39;72.60;100000.63;108965;1259;71285;-66
2023/04/11 00:09:58;;;;;;;15.50;8.60;;;;;;;7.40;72.63;99998.11;108793;1259;57190;-68
2023/04/11 00:12:46;;;;;;;15.40;8.60;;;;;;;7.39;72.72;99992.33;109008;1259;58859;-67
2023/04/11 00:15:34;;;;;;;15.70;8.70;;;;;;;7.40;73.07;99985.41;109005;1259;73109;-67
2023/04/11 00:18:24;;;;;;;17.70;9.00;;;;;;;7.40;72.73;99981.17;108869;1259;67906;-66
2023/04/11 00:21:12;;;;;;;16.80;8.70;;;;;;;7.38;72.66;99977.73;108942;1259;71340;-67
2023/04/11 00:24:00;;;;;;;16.40;8.60;;;;;;;7.38;72.91;99973.52;108916;1259;57316;-64
2023/04/11 00:26:48;;;;;;;16.10;8.00;;;;;;;7.36;72.75;99970.80;108915;1259;58727;-65
2023/04/11 00:29:36;;;;;;;16.00;8.20;;;;;;;7.35;72.89;99966.35;108829;1260;73165;-66
2023/04/11 00:32:24;;;;;;;16.10;7.80;;;;;;;7.31;72.72;99956.34;108845;1261;67621;-66
2023/04/11 00:35:12;;;;;;;16.50;8.20;;;;;;;7.27;72.68;99953.27;108589;1263;70183;-67
2023/04/11 00:38:01;;;;;;;17.80;7.90;;;;;;;7.21;72.85;99950.98;108750;1262;57385;-68
2023/04/11 00:40:49;;;;;;;16.70;6.80;;;;;;;7.15;72.88;99948.73;108770;1262;58795;-65
2023/04/11 00:43:38;;;;;;;15.80;7.70;;;;;;;7.09;73.25;99944.02;108594;1266;72864;-64
2023/04/11 00:46:26;;;;;;;16.50;7.80;;;;;;;7.03;73.43;99939.30;108757;1262;68693;-65
2023/04/11 00:49:15;;;;;;;17.00;8.20;;;;;;;6.97;73.84;99931.50;108715;1267;72412;-66
2023/04/11 00:52:05;;;;;;;14.30;7.60;;;;;;;6.94;73.95;99928.91;108723;1262;57333;-66
2023/04/11 00:54:53;;;;;;;16.10;7.80;;;;;;;6.91;73.95;99923.10;108775;1264;59100;-69
2023/04/11 00:57:43;;;;;;;19.70;8.00;;;;;;;6.88;74.04;99922.76;108845;1262;73015;-65
2023/04/11 01:00:34;;;;;;;16.20;8.00;;;;;;;6.84;74.09;99917.56;108652;1262;66722;-66
2023/04/11 01:03:22;;;;;;;15.00;7.80;;;;;;;6.79;74.33;99915.58;108657;1262;72679;-66
2023/04/11 01:06:13;;;;;;;16.00;7.70;;;;;;;6.75;74.30;99911.42;108652;1262;58951;-66
2023/04/11 01:09:03;;;;;;;15.60;7.60;;;;;;;6.69;74.54;99904.22;108795;1262;59004;-66
2023/04/11 01:11:51;;;;;;;16.40;7.20;;;;;;;6.65;75.18;99904.47;108789;1262;73326;-66
2023/04/11 01:14:40;;;;;;;14.40;6.80;;;;;;;6.60;75.06;99899.50;108843;1260;67990;-65
2023/04/11 01:17:28;;;;;;;15.60;6.60;;;;;;;6.55;75.83;99897.00;108821;1261;72457;-64
2023/04/11 01:20:16;;;;;;;15.20;7.00;;;;;;;6.53;76.52;99895.23;108821;1261;57465;-67
2023/04/11 01:23:05;;;;;;;14.10;7.00;;;;;;;6.52;76.55;99891.58;108810;1262;60533;-66
2023/04/11 01:25:56;;;;;;;15.20;6.60;;;;;;;6.52;76.51;99889.08;108817;1261;71801;-67
2023/04/11 01:28:44;;;;;;;16.40;6.60;;;;;;;6.53;77.43;99884.82;108785;1263;66627;-66
2023/04/11 01:31:33;;;;;;;15.80;7.40;;;;;;;6.55;77.72;99881.15;108842;1260;71392;-66
2023/04/11 01:34:26;;;;;;;13.30;6.40;;;;;;;6.57;77.28;99881.73;108811;1261;57305;-66
2023/04/11 01:37:15;;;;;;;13.90;7.20;;;;;;;6.58;77.41;99882.20;108997;1260;58803;-67
2023/04/11 01:40:04;;;;;;;14.10;6.50;;;;;;;6.59;77.71;99879.28;108864;1260;72738;-66
2023/04/11 01:42:53;;;;;;;12.80;6.20;;;;;;;6.59;77.53;99875.07;108834;1260;66600;-64
2023/04/11 01:45:41;;;;;;;13.20;6.00;;;;;;;6.56;77.39;99872.94;108834;1260;71087;-65
2023/04/11 01:48:33;;;;;;;13.00;6.10;;;;;;;6.52;78.03;99868.10;108747;1261;57378;-63
2023/04/11 01:51:21;;;;;;;15.40;6.50;;;;;;;6.50;78.25;99864.02;108972;1264;59209;-65
2023/04/11 01:54:09;;;;;;;14.30;6.90;;;;;;;6.47;78.64;99865.22;108873;1260;71877;-64
2023/04/11 01:56:57;;;;;;;15.00;7.00;;;;;;;6.46;78.20;99856.50;108934;1260;66343;-65
2023/04/11 01:59:47;;;;;;;13.90;6.70;;;;;;;6.43;78.07;99846.64;108950;1261;72397;-67
2023/04/11 02:02:36;;;;;;;15.20;6.90;;;;;;;6.43;78.91;99847.37;108864;1261;59566;-67
2023/04/11 02:05:24;;;;;;;14.20;7.00;;;;;;;6.45;79.13;99844.91;108924;1261;59123;-66
2023/04/11 02:08:15;;;;;;;12.80;6.30;;;;;;;6.47;79.33;99844.98;108851;1261;71734;-66
2023/04/11 02:11:04;;;;;;;16.30;6.90;;;;;;;6.48;79.31;99841.94;108822;1260;67740;-66
2023/04/11 02:13:51;;;;;;;14.70;7.10;;;;;;;6.48;79.34;99831.03;108959;1260;72402;-65
2023/04/11 02:16:54;;;;;;;15.10;7.10;;;;;;;6.46;79.65;99827.80;108700;1260;58045;-65
2023/04/11 02:19:44;;;;;;;14.80;6.50;;;;;;;6.45;79.44;99823.08;108928;1261;59044;-66
2023/04/11 02:22:32;;;;;;;15.00;7.60;;;;;;;6.43;79.39;99819.81;108861;1261;72886;-65
2023/04/11 02:25:19;;;;;;;13.70;6.80;;;;;;;6.42;79.40;99814.79;109005;1260;66423;-65
2023/04/11 02:28:07;;;;;;;13.80;7.40;;;;;;;6.41;79.64;99813.44;108765;1259;71162;-65
2023/04/11 02:30:55;;;;;;;13.90;6.80;;;;;;;6.41;79.43;99807.14;108910;1259;57691;-67
2023/04/11 02:33:43;;;;;;;14.90;7.30;;;;;;;6.40;79.37;99804.00;108819;1259;60359;-65
2023/04/11 02:36:30;;;;;;;15.50;7.40;;;;;;;6.37;79.80;99801.58;108072;1259;1002250;-64
2023/04/11 02:39:23;;;;;;;15.60;7.40;;;;;;;6.36;79.72;99794.08;108858;1259;69162;-65
2023/04/11 02:42:12;;;;;;;15.80;7.00;;;;;;;6.33;80.22;99789.36;108686;1259;178496;-66
2023/04/11 02:45:00;;;;;;;13.80;7.00;;;;;;;6.30;80.23;99785.96;108844;1259;58738;-65
2023/04/11 02:47:48;;;;;;;18.50;7.90;;;;;;;6.28;80.14;99777.64;108794;1259;58838;-67
2023/04/11 02:50:39;;;;;;;17.50;8.10;;;;;;;6.27;80.86;99778.09;108934;1259;71782;-67
2023/04/11 02:53:27;;;;;;;15.40;7.50;;;;;;;6.28;81.23;99773.25;108798;1259;68956;-64
2023/04/11 02:56:18;;;;;;;15.50;7.70;;;;;;;6.32;81.81;99769.45;108937;1259;72769;-67
2023/04/11 02:59:08;;;;;;;15.00;7.80;;;;;;;6.35;81.56;99767.89;108921;1259;58462;-66
2023/04/11 03:02:00;;;;;;;17.10;7.80;;;;;;;6.37;82.12;99765.77;108919;1259;60372;-66
2023/04/11 03:04:49;;;;;;;13.50;7.00;;;;;;;6.39;81.99;99764.96;108895;1258;73067;-67
2023/04/11 03:07:39;;;;;;;16.00;7.70;;;;;;;6.39;81.93;99760.05;108881;1259;69146;-65
2023/04/11 03:10:27;;;;;;;15.10;7.80;;;;;;;6.36;82.53;99753.85;108859;1259;72450;-65
2023/04/11 03:13:15;;;;;;;16.50;9.00;;;;;;;6.35;82.66;99753.40;108970;1259;59588;-67
2023/04/11 03:16:05;;;;;;;18.40;7.70;;;;;;;6.35;82.69;99750.40;108968;1259;59508;-64
2023/04/11 03:18:53;;;;;;;16.80;8.10;;;;;;;6.35;82.84;99746.51;108932;1259;71472;-66
2023/04/11 03:21:41;;;;;;;15.10;8.30;;;;;;;6.36;83.11;99742.09;109009;1264;66597;-68
2023/04/11 03:24:31;;;;;;;19.10;8.30;;;;;;;6.36;82.85;99744.39;108865;1259;71479;-64
2023/04/11 03:27:18;;;;;;;19.00;8.20;;;;;;;6.36;83.25;99743.52;108918;1259;59426;-67
2023/04/11 03:30:08;;;;;;;18.60;8.30;;;;;;;6.39;84.24;99744.35;108839;1259;59477;-68
2023/04/11 03:33:01;;;;;;;15.90;7.90;;;;;;;6.43;84.02;99739.50;108854;1259;72771;-67
2023/04/11 03:35:50;;;;;;;18.40;9.30;;;;;;;6.45;83.42;99737.27;108848;1259;68026;-64
2023/04/11 03:38:38;;;;;;;14.40;7.80;;;;;;;6.43;83.92;99728.90;108880;1259;72485;-65
2023/04/11 03:41:26;;;;;;;19.30;8.60;;;;;;;6.42;84.20;99725.81;108880;1259;57475;-67
2023/04/11 03:44:14;;;;;;;16.50;8.70;;;;;;;6.42;84.56;99718.97;108897;1259;60337;-67
2023/04/11 03:47:03;;;;;;;16.60;8.70;;;;;;;6.44;85.47;99717.05;108852;1259;72936;-67
2023/04/11 03:49:56;;;;;;;14.40;7.80;;;;;;;6.48;86.16;99707.95;108701;1262;67948;-65
2023/04/11 03:52:44;;;;;;;17.20;7.90;;;;;;;6.56;86.17;99699.36;108607;1263;72757;-66
2023/04/11 03:55:33;;;;;;;19.60;9.10;;;;;;;6.59;85.35;99695.05;108617;1270;58073;-66
2023/04/11 03:58:21;;;;;;;17.10;8.40;;;;;;;6.62;85.63;99690.67;108566;1263;60199;-67
2023/04/11 04:01:09;;;;;;;17.80;9.40;;;;;;;6.64;86.33;99686.83;108723;1262;73872;-66
2023/04/11 04:03:59;;;;;;;17.50;9.00;;;;;;;6.69;86.62;99681.93;108767;1262;67827;-66
2023/04/11 04:06:47;;;;;;;19.30;9.60;;;;;;;6.75;86.87;99679.19;108838;1262;72752;-64
2023/04/11 04:09:41;;;;;;;17.70;9.30;;;;;;;6.83;87.15;99670.35;108569;1267;59823;-67
2023/04/11 04:12:31;;;;;;;22.50;11.40;;;;;;;6.93;87.50;99665.80;108716;1262;60415;-65
2023/04/11 04:15:40;;;;;;;21.20;10.10;;;;;;;7.09;88.06;99667.02;108646;1262;71830;-66
2023/04/11 04:18:28;;;;;;;17.50;9.40;;;;;;;7.23;87.54;99665.72;108556;1262;67651;-68
2023/04/11 04:21:16;;;;;;;18.80;10.00;;;;;;;7.34;87.10;99657.33;108828;1259;72961;-68
2023/04/11 04:24:05;;;;;;;20.10;10.80;;;;;;;7.45;86.71;99660.08;108873;1259;57330;-67
2023/04/11 04:27:12;;;;;;;20.70;10.30;;;;;;;7.56;86.26;99659.14;108780;1265;58742;-71
2023/04/11 04:30:07;;;;;;;20.10;11.00;;;;;;;7.66;85.74;99655.73;108657;1263;73088;-69
2023/04/11 04:33:10;;;;;;;19.10;10.70;;;;;;;7.76;85.45;99646.21;108648;1263;67900;-66
2023/04/11 04:36:01;;;;;;;19.00;10.70;;;;;;;7.86;85.14;99637.40;108708;1264;72055;-70
2023/04/11 04:38:50;;;;;;;21.60;11.00;;;;;;;7.94;84.68;99637.30;108631;1264;57437;-68
2023/04/11 04:41:44;;;;;;;21.70;12.50;;;;;;;8.02;84.46;99634.07;108679;1264;59477;-69
2023/04/11 04:44:32;;;;;;;25.10;13.20;;;;;;;8.15;84.09;99625.03;108644;1264;73236;-69
2023/04/11 04:47:30;;;;;;;20.80;12.50;;;;;;;8.27;83.69;99623.91;108607;1264;67929;-70
2023/04/11 04:50:19;;;;;;;22.60;12.80;;;;;;;8.42;83.28;99626.52;108638;1263;71707;-70
2023/04/11 04:53:08;;;;;;;23.70;12.80;;;;;;;8.54;82.70;99624.04;108662;1264;57399;-68
2023/04/11 04:55:57;;;;;;;24.10;12.80;;;;;;;8.64;82.18;99620.66;108581;1264;58729;-68
2023/04/11 04:58:46;;;;;;;23.90;12.60;;;;;;;8.73;82.01;99620.70;108574;1264;72970;-69
2023/04/11 05:01:38;;;;;;;22.00;12.20;;;;;;;8.82;81.78;99618.75;108838;1260;66910;-70
2023/04/11 05:04:28;;;;;;;18.60;11.20;;;;;;;8.93;81.33;99617.73;108840;1260;72576;-67
2023/04/11 05:07:19;;;;;;;20.40;10.80;;;;;;;9.01;80.91;99612.13;108915;1260;59771;-77
2023/04/11 05:10:10;;;;;;;22.60;11.30;;;;;;;9.15;80.35;99608.35;108824;1260;58745;-77
2023/04/11 05:12:59;;;;;;;19.00;10.70;;;;;;;9.30;80.12;99603.30;108908;1259;71787;-78
2023/04/11 05:15:48;;;;;;;16.70;10.30;;;;;;;9.44;79.38;99602.36;107951;1264;1002502;-78
2023/04/11 05:18:37;;;;;;;18.90;11.50;;;;;;;9.56;78.40;99597.18;108769;1267;71258;-77
2023/04/11 05:21:25;;;;;;;20.90;10.90;;;;;;;9.67;77.68;99595.54;108632;1262;57310;-78
2023/04/11 05:24:13;;;;;;;20.70;10.70;;;;;;;9.77;77.24;99591.73;108817;1264;60217;-75
2023/04/11 05:27:03;;;;;;;18.00;10.20;;;;;;;9.90;76.40;99589.11;108512;1267;72526;-76
2023/04/11 05:29:53;;;;;;;19.30;10.00;;;;;;;10.01;76.09;99589.38;108375;1267;68959;-81
2023/04/11 05:32:41;;;;;;;20.60;10.80;;;;;;;10.18;75.65;99587.66;108423;1267;71147;-80
2023/04/11 05:35:30;;;;;;;19.10;10.30;;;;;;;10.27;74.68;99585.54;108486;1266;57176;-77
2023/04/11 05:38:19;;;;;;;20.70;10.60;;;;;;;10.35;74.06;99583.29;108404;1267;59701;-76
2023/04/11 05:41:08;;;;;;;15.80;8.70;;;;;;;10.44;73.71;99583.42;108356;1267;73209;-78
2023/04/11 05:43:58;;;;;;;20.00;11.30;;;;;;;10.51;73.25;99582.42;108351;1267;67940;-78
2023/04/11 05:46:47;;;;;;;18.50;10.00;;;;;;;10.60;73.02;99576.23;108146;1267;71454;-76
2023/04/11 05:49:35;;;;;;;17.60;10.00;;;;;;;10.71;72.36;99572.73;108469;1267;57377;-84
2023/04/11 05:52:26;;;;;;;16.50;10.10;;;;;;;10.79;71.83;99566.78;108355;1267;59088;-83
2023/04/11 05:55:19;;;;;;;17.40;9.70;;;;;;;10.92;71.84;99563.19;108521;1267;73201;-82
2023/04/11 05:58:09;;;;;;;16.80;10.50;;;;;;;11.06;70.83;99560.54;108521;1269;66599;-83
2023/04/11 06:00:58;;;;;;;16.50;10.00;;;;;;;11.20;70.42;99558.19;108529;1264;72478;-82
2023/04/11 06:03:47;;;;;;;17.40;9.40;;;;;;;11.31;69.95;99550.46;108456;1264;57381;-81
2023/04/11 06:06:35;;;;;;;15.70;9.00;;;;;;;11.48;69.20;99542.47;108441;1264;60464;-81
2023/04/11 06:09:23;;;;;;;19.20;9.60;;;;;;;11.63;68.48;99536.98;108481;1264;73320;-78
2023/04/11 06:12:10;;;;;;;19.00;10.80;;;;;;;11.75;67.68;99528.46;108618;1264;67997;-81
2023/04/11 06:15:00;;;;;;;20.30;10.20;;;;;;;11.88;66.94;99521.92;108551;1269;73267;-83
2023/04/11 06:17:49;;;;;;;16.50;9.10;;;;;;;12.07;66.19;99521.16;108680;1264;57327;-80
2023/04/11 06:20:37;;;;;;;15.60;9.40;;;;;;;12.32;65.25;99515.94;108605;1264;60361;-83
2023/04/11 06:23:26;;;;;;;16.60;9.90;;;;;;;12.82;64.35;99511.39;108642;1260;73222;-82
2023/04/11 06:26:14;;;;;;;16.60;9.30;;;;;;;13.70;61.48;99497.91;108884;1260;66805;-82
2023/04/11 06:29:04;;;;;;;18.60;9.80;;;;;;;14.65;58.05;99492.40;108822;1263;72051;-71
2023/04/11 06:31:52;;;;;;;15.90;8.60;;;;;;;15.49;54.97;99488.61;108832;1262;57736;-71
2023/04/11 06:34:40;;;;;;;12.40;7.70;;;;;;;16.22;52.93;99484.27;108781;1262;60177;-73
2023/04/11 06:37:28;;;;;;;14.30;8.20;;;;;;;16.88;51.92;99478.23;108885;1262;71889;-72
2023/04/11 06:40:19;;;;;;;14.50;8.50;;;;;;;17.32;48.46;99478.47;108809;1264;68026;-71
2023/04/11 06:43:07;;;;;;;12.40;7.50;;;;;;;17.32;47.50;99477.86;108830;1262;70894;-69
2023/04/11 06:45:55;;;;;;;13.10;7.30;;;;;;;17.38;47.40;99466.85;108708;1262;57389;-69
2023/04/11 06:48:42;;;;;;;15.90;7.60;;;;;;;17.49;47.51;99465.71;108770;1261;59140;-71
2023/04/11 06:51:30;;;;;;;12.90;7.30;;;;;;;17.44;46.84;99466.63;108829;1263;72182;-69
2023/04/11 06:54:18;;;;;;;14.10;7.40;;;;;;;17.34;46.79;99460.14;108807;1263;67911;-69
2023/04/11 06:57:06;;;;;;;16.90;8.60;;;;;;;17.30;46.68;99457.35;108874;1262;72933;-69
2023/04/11 06:59:54;;;;;;;13.70;8.00;;;;;;;17.18;46.75;99453.35;108812;1262;57409;-70
2023/04/11 07:02:43;;;;;;;13.30;7.60;;;;;;;17.11;47.20;99446.57;108786;1262;58858;-68
2023/04/11 07:05:35;;;;;;;14.40;8.00;;;;;;;17.07;47.10;99443.86;108668;1264;73051;-70
2023/04/11 07:08:26;;;;;;;15.60;9.60;;;;;;;17.10;47.25;99441.29;108637;1264;67714;-70
2023/04/11 07:11:14;;;;;;;12.40;8.20;;;;;;;17.37;46.59;99437.73;108659;1264;71709;-68
2023/04/11 07:14:02;;;;;;;13.90;9.00;;;;;;;17.53;46.28;99432.23;108559;1264;58234;-68
2023/04/11 07:16:51;;;;;;;13.70;8.30;;;;;;;18.00;45.43;99429.77;108696;1264;60062;-70
2023/04/11 07:19:39;;;;;;;13.50;8.30;;;;;;;18.64;44.33;99423.08;108640;1264;71422;-68
2023/04/11 07:22:28;;;;;;;14.00;8.10;;;;;;;19.04;42.81;99430.08;108613;1263;68094;-69
2023/04/11 07:25:15;;;;;;;15.60;8.90;;;;;;;19.14;42.30;99427.01;108366;1265;72925;-67
2023/04/11 07:28:07;;;;;;;13.60;7.80;;;;;;;19.42;42.03;99423.55;108399;1266;57373;-70
2023/04/11 07:30:56;;;;;;;13.40;7.60;;;;;;;19.43;41.52;99423.02;108535;1267;58748;-69
2023/04/11 07:33:44;;;;;;;16.50;8.20;;;;;;;19.84;41.22;99422.61;108494;1267;72497;-69
2023/04/11 07:36:31;;;;;;;15.20;8.10;;;;;;;20.31;40.11;99428.04;108454;1262;67827;-68
2023/04/11 07:39:18;;;;;;;16.00;8.30;;;;;;;20.21;39.61;99429.83;108721;1264;72941;-69
2023/04/11 07:42:06;;;;;;;13.80;8.70;;;;;;;20.04;39.96;99425.66;108737;1264;57362;-70
2023/04/11 07:44:56;;;;;;;12.80;7.80;;;;;;;20.36;39.45;99425.89;108634;1262;60301;-70
2023/04/11 07:47:44;;;;;;;14.70;8.60;;;;;;;20.89;38.55;99421.87;108685;1263;71933;-71
2023/04/11 07:50:32;;;;;;;13.20;8.40;;;;;;;21.07;37.82;99419.05;108793;1262;66654;-68
2023/04/11 07:53:23;;;;;;;15.10;9.60;;;;;;;21.03;38.11;99416.91;108734;1263;71280;-71
2023/04/11 07:56:12;;;;;;;14.80;8.80;;;;;;;20.82;38.21;99422.52;108710;1260;57746;-70
2023/04/11 07:59:00;;;;;;;14.70;8.20;;;;;;;20.56;38.81;99416.48;108855;1260;59039;-70
2023/04/11 08:02:00;;;;;;;17.10;9.20;;;;;;;19.68;40.11;99419.48;108750;1260;73856;-71
2023/04/11 08:04:48;;;;;;;19.50;10.20;;;;;;;18.97;41.59;99417.41;108881;1260;67981;-70
2023/04/11 08:07:37;;;;;;;15.60;10.30;;;;;;;18.23;43.33;99415.77;108870;1260;71454;-71
2023/04/11 08:10:26;;;;;;;18.10;9.60;;;;;;;17.81;44.51;99407.45;108843;1260;58105;-68
2023/04/11 08:13:14;;;;;;;15.50;9.20;;;;;;;17.80;44.86;99410.20;108856;1260;59129;-73
2023/04/11 08:16:08;;;;;;;16.00;9.70;;;;;;;17.76;45.02;99406.54;108881;1260;71526;-72
2023/04/11 08:18:59;;;;;;;16.90;9.70;;;;;;;17.67;45.38;99398.11;108912;1261;68024;-69
2023/04/11 08:21:47;;;;;;;16.00;10.10;;;;;;;18.10;44.88;99390.95;108850;1260;71501;-68
2023/04/11 08:24:35;;;;;;;14.20;8.90;;;;;;;18.20;44.67;99393.16;108810;1260;57394;-69
2023/04/11 08:27:23;;;;;;;14.90;9.50;;;;;;;18.42;44.22;99385.27;108926;1260;59076;-71
2023/04/11 08:30:13;;;;;;;13.50;8.40;;;;;;;18.69;43.61;99382.36;108804;1260;73900;-69
2023/04/11 08:33:02;;;;;;;15.60;8.50;;;;;;;18.91;43.04;99382.56;108876;1260;68138;-65
2023/04/11 08:35:49;;;;;;;15.60;8.50;;;;;;;19.25;42.54;99371.92;108823;1260;71350;-72
2023/04/11 08:38:41;;;;;;;15.10;8.60;;;;;;;19.48;41.86;99369.70;108762;1260;57392;-65
2023/04/11 08:41:29;;;;;;;12.70;7.30;;;;;;;19.51;41.58;99366.36;108829;1260;59125;-68
2023/04/11 08:44:18;;;;;;;11.80;6.60;;;;;;;19.44;41.66;99363.05;108713;1262;73291;-68
2023/04/11 08:47:06;;;;;;;12.00;6.90;;;;;;;19.23;41.48;99356.42;108571;1265;65362;-72
2023/04/11 08:49:56;;;;;;;12.00;6.40;;;;;;;18.80;41.96;99356.04;108459;1266;72845;-73
2023/04/11 08:52:45;;;;;;;14.70;6.70;;;;;;;18.34;42.75;99351.21;108494;1266;57337;-71
2023/04/11 08:55:33;;;;;;;11.40;6.00;;;;;;;18.14;43.37;99342.70;108520;1267;60430;-70
2023/04/11 08:58:21;;;;;;;12.00;6.50;;;;;;;17.86;43.89;99335.85;108475;1266;72813;-71
2023/04/11 09:01:31;;;;;;;13.40;6.30;;;;;;;17.58;44.50;99334.67;108527;1267;67604;-69
2023/04/11 09:04:39;;;;;;;12.30;6.30;;;;;;;17.46;44.77;99327.59;108569;1265;72810;-68
2023/04/11 09:07:47;;;;;;;11.30;6.20;;;;;;;17.61;45.04;99316.01;108388;1267;57410;-70
2023/04/11 09:10:40;;;;;;;12.70;5.70;;;;;;;17.81;44.44;99316.45;108532;1267;60118;-74
2023/04/11 09:13:28;;;;;;;13.00;6.30;;;;;;;17.93;43.68;99315.44;108553;1267;72757;-70
2023/04/11 09:16:16;;;;;;;13.50;6.70;;;;;;;18.28;43.04;99310.85;108543;1265;67926;-69
2023/04/11 09:19:22;;;;;;;11.30;6.50;;;;;;;18.73;42.01;99306.95;108746;1262;72953;-70
2023/04/11 09:22:11;;;;;;;11.10;5.50;;;;;;;19.76;40.62;99301.08;108762;1260;58014;-70
2023/04/11 09:25:02;;;;;;;10.40;5.20;;;;;;;20.61;38.51;99291.31;108854;1260;59153;-71
2023/04/11 09:28:09;;;;;;;9.70;5.20;;;;;;;21.43;36.12;99280.81;108848;1260;71966;-71
2023/04/11 09:30:57;;;;;;;10.10;5.20;;;;;;;21.89;35.28;99279.85;108887;1261;67286;-69
2023/04/11 09:33:57;;;;;;;9.20;4.60;;;;;;;22.19;34.43;99278.38;108883;1259;72821;-71
2023/04/11 09:36:54;;;;;;;11.20;5.10;;;;;;;22.97;33.11;99280.95;108894;1259;58369;-69
2023/04/11 09:39:57;;;;;;;11.00;4.70;;;;;;;23.12;32.58;99271.99;109029;1259;60391;-69
2023/04/11 09:42:48;;;;;;;11.40;4.30;;;;;;;23.45;32.36;99258.97;108938;1259;73204;-67
2023/04/11 09:45:38;;;;;;;11.50;4.80;;;;;;;23.72;32.10;99261.03;108788;1263;66935;-72
2023/04/11 09:48:41;;;;;;;8.80;4.00;;;;;;;23.57;31.45;99251.84;108697;1263;70865;-69
2023/04/11 09:51:35;;;;;;;9.50;4.50;;;;;;;23.15;32.02;99249.85;108602;1263;57319;-70
2023/04/11 09:54:27;;;;;;;11.40;4.30;;;;;;;22.64;32.50;99239.89;108726;1263;60575;-70
2023/04/11 09:57:15;;;;;;;9.90;4.30;;;;;;;22.09;33.27;99237.56;108665;1263;71680;-70
2023/04/11 10:00:13;;;;;;;10.10;4.30;;;;;;;21.73;34.17;99233.61;108602;1263;66902;-68
2023/04/11 10:03:02;;;;;;;11.70;3.90;;;;;;;21.13;34.43;99231.20;108650;1263;71608;-68
2023/04/11 10:05:54;;;;;;;11.50;4.30;;;;;;;21.08;34.86;99226.88;108495;1263;57464;-69
2023/04/11 10:08:42;;;;;;;11.70;4.40;;;;;;;21.41;34.27;99222.89;108532;1263;58735;-69
2023/04/11 10:11:31;;;;;;;9.50;5.30;;;;;;;21.77;33.68;99220.44;108631;1263;73198;-68
2023/04/11 10:14:37;;;;;;;10.60;5.40;;;;;;;21.68;33.67;99213.16;108690;1263;68129;-68
2023/04/11 10:17:26;;;;;;;14.80;4.70;;;;;;;21.14;34.62;99209.77;108951;1259;72827;-67
2023/04/11 10:20:42;;;;;;;11.70;5.20;;;;;;;20.88;34.90;99211.66;108818;1259;57808;-68
2023/04/11 10:24:09;;;;;;;9.90;4.70;;;;;;;20.73;35.40;99208.80;108993;1259;60145;-69
2023/04/11 10:27:03;;;;;;;10.60;4.90;;;;;;;20.11;35.38;99220.39;108958;1259;73393;-70
2023/04/11 10:29:58;;;;;;;9.70;4.80;;;;;;;19.86;35.70;99206.00;108920;1260;66631;-76
2023/04/11 10:33:16;;;;;;;12.60;5.00;;;;;;;19.83;35.33;99211.21;108674;1264;70404;-71
2023/04/11 10:36:10;;;;;;;10.30;4.90;;;;;;;19.74;34.90;99210.82;108557;1265;57486;-69
2023/04/11 10:39:00;;;;;;;10.70;4.80;;;;;;;19.67;34.94;99198.77;108605;1265;60408;-68
2023/04/11 10:41:48;;;;;;;10.20;5.00;;;;;;;20.10;34.86;99186.55;108570;1264;73572;-66
2023/04/11 10:44:38;;;;;;;13.90;4.50;;;;;;;20.49;34.36;99181.60;108606;1265;66422;-71
2023/04/11 10:47:27;;;;;;;14.50;5.00;;;;;;;20.97;33.62;99176.73;108342;1267;71620;-72
2023/04/11 10:50:25;;;;;;;9.70;5.10;;;;;;;20.84;33.49;99174.26;108064;1268;58878;-74
2023/04/11 10:53:35;;;;;;;10.90;4.20;;;;;;;20.71;33.96;99171.81;108476;1267;60424;-72
2023/04/11 10:56:42;;;;;;;10.30;4.10;;;;;;;20.32;33.96;99170.50;108489;1267;73406;-74
2023/04/11 10:59:30;;;;;;;10.00;4.20;;;;;;;20.55;34.17;99165.42;108397;1267;69049;-74
2023/04/11 11:02:20;;;;;;;12.70;4.00;;;;;;;20.75;33.86;99155.56;108387;1270;72968;-74
2023/04/11 11:05:16;;;;;;;8.50;3.90;;;;;;;20.98;33.38;99163.01;108672;1263;57437;-74
2023/04/11 11:08:04;;;;;;;9.60;3.90;;;;;;;20.44;33.78;99157.67;108634;1263;59103;-72
2023/04/11 11:10:52;;;;;;;9.90;4.50;;;;;;;20.21;34.67;99153.02;108652;1263;73272;-74
2023/04/11 11:13:44;;;;;;;9.10;4.70;;;;;;;19.65;36.44;99155.52;108686;1263;68155;-73
2023/04/11 11:16:32;;;;;;;8.40;4.70;;;;;;;19.49;36.92;99150.49;108676;1263;71736;-75
2023/04/11 11:19:20;;;;;;;9.30;3.80;;;;;;;19.37;36.89;99157.65;108849;1260;57345;-74
2023/04/11 11:22:17;;;;;;;8.80;4.30;;;;;;;18.97;36.79;99155.91;108961;1260;60049;-73
2023/04/11 11:25:08;;;;;;;12.30;4.30;;;;;;;18.80;36.90;99150.30;108900;1260;73228;-74
2023/04/11 11:28:08;;;;;;;8.40;3.80;;;;;;;18.75;36.49;99148.01;108858;1260;67780;-74
2023/04/11 11:30:56;;;;;;;9.40;4.30;;;;;;;18.80;36.68;99140.75;108963;1260;72954;-75
2023/04/11 11:33:44;;;;;;;9.00;3.90;;;;;;;19.06;36.46;99133.75;108885;1260;57826;-75
2023/04/11 11:36:45;;;;;;;8.90;4.00;;;;;;;18.79;37.09;99137.14;108903;1260;60149;-73
2023/04/11 11:39:34;;;;;;;8.40;3.90;;;;;;;18.54;37.65;99138.79;108875;1260;73220;-74
2023/04/11 11:42:22;;;;;;;10.50;4.60;;;;;;;18.01;38.82;99148.83;108916;1260;66820;-73
2023/04/11 11:45:20;;;;;;;11.50;4.40;;;;;;;17.82;39.44;99136.48;108803;1260;71472;-72
2023/04/11 11:48:22;;;;;;;9.30;4.00;;;;;;;17.61;39.83;99132.55;108953;1260;57977;-73
2023/04/11 11:51:10;;;;;;;10.10;4.70;;;;;;;17.59;40.20;99126.82;108933;1260;60311;-74
2023/04/11 11:54:07;;;;;;;7.90;4.60;;;;;;;17.55;40.29;99133.43;108843;1260;73014;-73
2023/04/11 11:56:55;;;;;;;9.40;5.20;;;;;;;17.39;40.76;99132.48;108855;1260;66682;-74
2023/04/11 11:59:43;;;;;;;10.20;4.70;;;;;;;17.21;41.42;99135.60;108891;1260;72735;-72
2023/04/11 12:02:34;;;;;;;11.50;4.90;;;;;;;17.12;41.82;99131.27;108923;1260;57466;-72
2023/04/11 12:05:28;;;;;;;9.70;4.40;;;;;;;17.11;41.73;99133.45;108900;1260;59009;-75
2023/04/11 12:08:22;;;;;;;9.60;4.40;;;;;;;17.06;41.54;99124.93;108962;1260;73186;-73
2023/04/11 12:11:15;;;;;;;9.70;4.80;;;;;;;17.08;41.41;99125.77;108967;1260;67866;-75
2023/04/11 12:14:03;;;;;;;11.20;4.80;;;;;;;17.07;41.55;99117.38;108973;1260;71163;-73
2023/04/11 12:16:54;;;;;;;8.90;4.70;;;;;;;17.07;41.91;99122.36;108890;1260;57315;-74
2023/04/11 12:19:44;;;;;;;10.30;5.20;;;;;;;17.04;41.66;99121.11;108845;1260;58886;-73
2023/04/11 12:22:33;;;;;;;10.60;5.00;;;;;;;17.04;41.93;99111.02;108936;1260;72924;-74
2023/04/11 12:25:21;;;;;;;12.30;4.60;;;;;;;17.18;41.87;99106.33;108891;1260;67963;-74
2023/04/11 12:28:11;;;;;;;10.10;4.60;;;;;;;17.47;41.56;99104.44;108788;1260;72906;-74
2023/04/11 12:30:59;;;;;;;10.40;4.50;;;;;;;17.69;40.89;99094.78;108868;1260;57294;-74
2023/04/11 12:33:47;;;;;;;9.10;4.70;;;;;;;17.69;40.84;99098.33;108688;1262;60380;-73
2023/04/11 12:36:36;;;;;;;8.40;4.10;;;;;;;17.56;40.50;99100.29;108739;1262;71957;-72
2023/04/11 12:39:23;;;;;;;11.00;4.80;;;;;;;17.36;40.70;99096.07;108776;1262;67961;-72
2023/04/11 12:42:16;;;;;;;9.70;4.80;;;;;;;17.34;40.94;99098.25;108722;1262;71631;-72
2023/04/11 12:45:13;;;;;;;9.40;4.20;;;;;;;17.50;41.01;99081.35;108725;1262;57385;-73
2023/04/11 12:48:01;;;;;;;8.50;4.70;;;;;;;17.63;40.47;99080.06;108749;1262;61140;-72
2023/04/11 12:50:52;;;;;;;10.30;4.70;;;;;;;17.60;39.89;99081.77;108803;1262;73045;-71
2023/04/11 12:53:42;;;;;;;9.50;4.70;;;;;;;17.49;40.38;99078.56;108885;1263;67669;-75
2023/04/11 12:56:29;;;;;;;10.70;4.30;;;;;;;17.37;40.78;99071.46;108766;1266;71595;-73
2023/04/11 12:59:18;;;;;;;9.30;4.80;;;;;;;17.37;40.82;99066.09;108757;1262;58052;-74
2023/04/11 13:02:06;;;;;;;12.30;4.80;;;;;;;17.17;40.81;99083.20;108737;1263;59061;-74
2023/04/11 13:04:56;;;;;;;10.40;5.20;;;;;;;17.06;41.35;99070.89;108689;1262;71972;-73
2023/04/11 13:07:44;;;;;;;10.20;4.60;;;;;;;17.03;41.33;99062.92;108826;1262;66883;-74